sensor_id;sensor_type;location;lat;lon;timestamp;temperature;humidity
13336;DHT22;6737;51.480;11.962;2023-07-29T00:00:47;19.60;99.90
13336;DHT22;6737;51.480;11.962;2023-07-29T00:03:13;19.60;99.90
13336;DHT22;6737;51.480;11.962;2023-07-29T00:05:40;19.60;99.90
13336;DHT22;6737;51.480;11.962;2023-07-29T00:08:06;19.60;99.90
13336;DHT22;6737;51.480;11.962;2023-07-29T00:10:34;19.60;99.90
13336;DHT22;6737;51.480;11.962;2023-07-29T00:13:01;19.60;99.90
13336;DHT22;6737;51.480;11.962;2023-07-29T00:15:27;19.60;99.90
13336;DHT22;6737;51.480;11.962;2023-07-29T00:17:52;19.60;99.90
13336;DHT22;6737;51.480;11.962;2023-07-29T00:20:18;19.60;99.90
13336;DHT22;6737;51.480;11.962;2023-07-29T00:22:44;19.60;99.90
13336;DHT22;6737;51.480;11.962;2023-07-29T00:25:09;19.60;99.90
13336;DHT22;6737;51.480;11.962;2023-07-29T00:27:35;19.60;99.90
13336;DHT22;6737;51.480;11.962;2023-07-29T00:30:01;19.60;99.90
13336;DHT22;6737;51.480;11.962;2023-07-29T00:32:29;19.60;99.90
13336;DHT22;6737;51.480;11.962;2023-07-29T00:34:56;19.60;99.90
13336;DHT22;6737;51.480;11.962;2023-07-29T00:37:22;19.60;99.90
13336;DHT22;6737;51.480;11.962;2023-07-29T00:39:48;19.60;99.90
13336;DHT22;6737;51.480;11.962;2023-07-29T00:42:13;19.60;99.90
13336;DHT22;6737;51.480;11.962;2023-07-29T00:44:39;19.60;99.90
13336;DHT22;6737;51.480;11.962;2023-07-29T00:47:05;19.60;99.90
13336;DHT22;6737;51.480;11.962;2023-07-29T00:49:32;19.60;99.90
13336;DHT22;6737;51.480;11.962;2023-07-29T00:51:58;19.60;99.90
13336;DHT22;6737;51.480;11.962;2023-07-29T00:54:24;19.60;99.90
13336;DHT22;6737;51.480;11.962;2023-07-29T00:56:50;19.50;99.90
13336;DHT22;6737;51.480;11.962;2023-07-29T00:59:16;19.50;99.90
13336;DHT22;6737;51.480;11.962;2023-07-29T01:01:42;19.50;99.90
13336;DHT22;6737;51.480;11.962;2023-07-29T01:04:08;19.50;99.90
13336;DHT22;6737;51.480;11.962;2023-07-29T01:09:30;19.40;99.90
13336;DHT22;6737;51.480;11.962;2023-07-29T01:15:25;19.40;99.90
13336;DHT22;6737;51.480;11.962;2023-07-29T01:18:02;19.40;99.90
13336;DHT22;6737;51.480;11.962;2023-07-29T01:20:29;19.30;99.90
13336;DHT22;6737;51.480;11.962;2023-07-29T01:22:58;19.30;99.90
13336;DHT22;6737;51.480;11.962;2023-07-29T01:25:24;19.30;99.90
13336;DHT22;6737;51.480;11.962;2023-07-29T01:27:51;19.30;99.90
13336;DHT22;6737;51.480;11.962;2023-07-29T01:30:20;19.30;99.90
13336;DHT22;6737;51.480;11.962;2023-07-29T01:35:50;19.30;99.90
13336;DHT22;6737;51.480;11.962;2023-07-29T01:38:38;19.30;99.90
13336;DHT22;6737;51.480;11.962;2023-07-29T01:41:06;19.30;99.90
13336;DHT22;6737;51.480;11.962;2023-07-29T01:43:33;19.30;99.90
13336;DHT22;6737;51.480;11.962;2023-07-29T01:46:00;19.30;99.90
13336;DHT22;6737;51.480;11.962;2023-07-29T01:48:26;19.30;99.90
13336;DHT22;6737;51.480;11.962;2023-07-29T01:50:56;19.30;99.90
13336;DHT22;6737;51.480;11.962;2023-07-29T01:53:21;19.30;99.90
13336;DHT22;6737;51.480;11.962;2023-07-29T01:55:47;19.30;99.90
13336;DHT22;6737;51.480;11.962;2023-07-29T01:58:13;19.30;99.90
13336;DHT22;6737;51.480;11.962;2023-07-29T02:00:40;19.30;99.90
13336;DHT22;6737;51.480;11.962;2023-07-29T02:03:05;19.30;99.90
13336;DHT22;6737;51.480;11.962;2023-07-29T02:05:31;19.30;99.90
13336;DHT22;6737;51.480;11.962;2023-07-29T02:07:57;19.30;99.90
13336;DHT22;6737;51.480;11.962;2023-07-29T02:10:23;19.30;99.90
13336;DHT22;6737;51.480;11.962;2023-07-29T02:12:48;19.20;99.90
13336;DHT22;6737;51.480;11.962;2023-07-29T02:15:14;19.20;99.90
13336;DHT22;6737;51.480;11.962;2023-07-29T02:17:42;19.20;99.90
13336;DHT22;6737;51.480;11.962;2023-07-29T02:20:08;19.20;99.90
13336;DHT22;6737;51.480;11.962;2023-07-29T02:22:34;19.20;99.90
13336;DHT22;6737;51.480;11.962;2023-07-29T02:25:00;19.10;99.90
13336;DHT22;6737;51.480;11.962;2023-07-29T02:27:26;19.10;99.90
13336;DHT22;6737;51.480;11.962;2023-07-29T02:29:55;19.00;99.90
13336;DHT22;6737;51.480;11.962;2023-07-29T02:32:21;19.00;99.90
13336;DHT22;6737;51.480;11.962;2023-07-29T02:34:46;19.00;99.90
13336;DHT22;6737;51.480;11.962;2023-07-29T02:37:12;19.00;99.90
13336;DHT22;6737;51.480;11.962;2023-07-29T02:39:38;19.00;99.90
13336;DHT22;6737;51.480;11.962;2023-07-29T02:42:04;18.90;99.90
13336;DHT22;6737;51.480;11.962;2023-07-29T02:44:30;19.00;99.90
13336;DHT22;6737;51.480;11.962;2023-07-29T02:46:55;19.00;99.90
13336;DHT22;6737;51.480;11.962;2023-07-29T02:49:22;19.00;99.90
13336;DHT22;6737;51.480;11.962;2023-07-29T02:51:49;18.90;99.90
13336;DHT22;6737;51.480;11.962;2023-07-29T02:54:15;18.90;99.90
13336;DHT22;6737;51.480;11.962;2023-07-29T02:56:40;18.90;99.90
13336;DHT22;6737;51.480;11.962;2023-07-29T02:59:06;18.90;99.90
13336;DHT22;6737;51.480;11.962;2023-07-29T03:01:32;18.90;99.90
13336;DHT22;6737;51.480;11.962;2023-07-29T03:03:58;18.90;99.90
13336;DHT22;6737;51.480;11.962;2023-07-29T03:06:23;18.90;99.90
13336;DHT22;6737;51.480;11.962;2023-07-29T03:08:49;18.90;99.90
13336;DHT22;6737;51.480;11.962;2023-07-29T03:11:16;18.90;99.90
13336;DHT22;6737;51.480;11.962;2023-07-29T03:13:42;18.90;99.90
13336;DHT22;6737;51.480;11.962;2023-07-29T03:16:12;18.80;99.90
13336;DHT22;6737;51.480;11.962;2023-07-29T03:18:39;18.80;99.90
13336;DHT22;6737;51.480;11.962;2023-07-29T03:21:05;18.80;99.90
13336;DHT22;6737;51.480;11.962;2023-07-29T03:23:31;18.80;99.90
13336;DHT22;6737;51.480;11.962;2023-07-29T03:25:59;18.70;99.90
13336;DHT22;6737;51.480;11.962;2023-07-29T03:28:28;18.70;99.90
13336;DHT22;6737;51.480;11.962;2023-07-29T03:30:56;18.70;99.90
13336;DHT22;6737;51.480;11.962;2023-07-29T03:33:22;18.70;99.90
13336;DHT22;6737;51.480;11.962;2023-07-29T03:35:48;18.70;99.90
13336;DHT22;6737;51.480;11.962;2023-07-29T03:38:15;18.70;99.90
13336;DHT22;6737;51.480;11.962;2023-07-29T03:40:42;18.70;99.90
13336;DHT22;6737;51.480;11.962;2023-07-29T03:43:08;18.60;99.90
13336;DHT22;6737;51.480;11.962;2023-07-29T03:45:35;18.60;99.90
13336;DHT22;6737;51.480;11.962;2023-07-29T03:48:01;18.60;99.90
13336;DHT22;6737;51.480;11.962;2023-07-29T03:50:27;18.60;99.90
13336;DHT22;6737;51.480;11.962;2023-07-29T03:52:53;18.60;99.90
13336;DHT22;6737;51.480;11.962;2023-07-29T03:55:19;18.60;99.90
13336;DHT22;6737;51.480;11.962;2023-07-29T03:57:46;18.60;99.90
13336;DHT22;6737;51.480;11.962;2023-07-29T04:00:12;18.60;99.90
13336;DHT22;6737;51.480;11.962;2023-07-29T04:02:38;18.60;99.90
13336;DHT22;6737;51.480;11.962;2023-07-29T04:05:05;18.70;99.90
13336;DHT22;6737;51.480;11.962;2023-07-29T04:07:31;18.60;99.90
13336;DHT22;6737;51.480;11.962;2023-07-29T04:09:57;18.70;99.90
13336;DHT22;6737;51.480;11.962;2023-07-29T04:12:23;18.70;99.90
13336;DHT22;6737;51.480;11.962;2023-07-29T04:14:49;18.70;99.90
13336;DHT22;6737;51.480;11.962;2023-07-29T04:17:15;18.80;99.90
13336;DHT22;6737;51.480;11.962;2023-07-29T04:19:41;18.80;99.90
13336;DHT22;6737;51.480;11.962;2023-07-29T04:22:06;18.80;99.90
13336;DHT22;6737;51.480;11.962;2023-07-29T04:24:32;18.80;99.90
13336;DHT22;6737;51.480;11.962;2023-07-29T04:26:58;18.80;99.90
13336;DHT22;6737;51.480;11.962;2023-07-29T04:29:25;18.80;99.90
13336;DHT22;6737;51.480;11.962;2023-07-29T04:31:51;18.80;99.90
13336;DHT22;6737;51.480;11.962;2023-07-29T04:34:18;18.80;99.90
13336;DHT22;6737;51.480;11.962;2023-07-29T04:36:45;18.80;99.90
13336;DHT22;6737;51.480;11.962;2023-07-29T04:39:11;18.80;99.90
13336;DHT22;6737;51.480;11.962;2023-07-29T04:41:37;18.80;99.90
13336;DHT22;6737;51.480;11.962;2023-07-29T04:44:03;18.80;99.90
13336;DHT22;6737;51.480;11.962;2023-07-29T04:46:29;18.90;99.90
13336;DHT22;6737;51.480;11.962;2023-07-29T04:48:54;18.80;99.90
13336;DHT22;6737;51.480;11.962;2023-07-29T04:51:20;18.90;99.90
13336;DHT22;6737;51.480;11.962;2023-07-29T04:53:46;18.80;99.90
13336;DHT22;6737;51.480;11.962;2023-07-29T04:56:12;18.90;99.90
13336;DHT22;6737;51.480;11.962;2023-07-29T04:58:38;18.90;99.90
13336;DHT22;6737;51.480;11.962;2023-07-29T05:01:04;18.90;99.90
13336;DHT22;6737;51.480;11.962;2023-07-29T05:03:30;18.90;99.90
13336;DHT22;6737;51.480;11.962;2023-07-29T05:05:57;18.90;99.90
13336;DHT22;6737;51.480;11.962;2023-07-29T05:08:23;19.00;99.90
13336;DHT22;6737;51.480;11.962;2023-07-29T05:10:50;19.00;99.90
13336;DHT22;6737;51.480;11.962;2023-07-29T05:13:17;19.00;99.90
13336;DHT22;6737;51.480;11.962;2023-07-29T05:15:43;19.00;99.90
13336;DHT22;6737;51.480;11.962;2023-07-29T05:18:09;19.00;99.90
13336;DHT22;6737;51.480;11.962;2023-07-29T05:20:34;19.10;99.90
13336;DHT22;6737;51.480;11.962;2023-07-29T05:23:00;19.10;99.90
13336;DHT22;6737;51.480;11.962;2023-07-29T05:25:27;19.10;99.90
13336;DHT22;6737;51.480;11.962;2023-07-29T05:27:52;19.20;99.90
13336;DHT22;6737;51.480;11.962;2023-07-29T05:30:18;19.20;99.90
13336;DHT22;6737;51.480;11.962;2023-07-29T05:32:44;19.20;99.90
13336;DHT22;6737;51.480;11.962;2023-07-29T05:35:10;19.20;99.90
13336;DHT22;6737;51.480;11.962;2023-07-29T05:37:39;19.30;99.90
13336;DHT22;6737;51.480;11.962;2023-07-29T05:40:08;19.30;99.90
13336;DHT22;6737;51.480;11.962;2023-07-29T05:42:34;19.30;99.90
13336;DHT22;6737;51.480;11.962;2023-07-29T05:45:00;19.40;99.90
13336;DHT22;6737;51.480;11.962;2023-07-29T05:47:26;19.50;99.90
13336;DHT22;6737;51.480;11.962;2023-07-29T05:49:52;19.50;99.90
13336;DHT22;6737;51.480;11.962;2023-07-29T05:52:18;19.60;99.90
13336;DHT22;6737;51.480;11.962;2023-07-29T05:54:45;19.70;99.90
13336;DHT22;6737;51.480;11.962;2023-07-29T05:57:12;19.80;99.90
13336;DHT22;6737;51.480;11.962;2023-07-29T05:59:38;19.90;99.90
13336;DHT22;6737;51.480;11.962;2023-07-29T06:02:04;20.00;99.90
13336;DHT22;6737;51.480;11.962;2023-07-29T06:04:30;20.00;99.90
13336;DHT22;6737;51.480;11.962;2023-07-29T06:06:56;20.10;99.90
13336;DHT22;6737;51.480;11.962;2023-07-29T06:09:22;20.10;99.90
13336;DHT22;6737;51.480;11.962;2023-07-29T06:11:48;20.10;99.90
13336;DHT22;6737;51.480;11.962;2023-07-29T06:14:14;20.10;99.90
13336;DHT22;6737;51.480;11.962;2023-07-29T06:16:40;20.10;99.90
13336;DHT22;6737;51.480;11.962;2023-07-29T06:19:06;20.20;99.90
13336;DHT22;6737;51.480;11.962;2023-07-29T06:21:35;20.20;99.90
13336;DHT22;6737;51.480;11.962;2023-07-29T06:24:01;20.20;99.90
13336;DHT22;6737;51.480;11.962;2023-07-29T06:26:28;20.30;99.90
13336;DHT22;6737;51.480;11.962;2023-07-29T06:28:53;20.40;99.90
13336;DHT22;6737;51.480;11.962;2023-07-29T06:31:19;20.40;99.90
13336;DHT22;6737;51.480;11.962;2023-07-29T06:33:46;20.50;99.90
13336;DHT22;6737;51.480;11.962;2023-07-29T06:36:12;20.50;99.90
13336;DHT22;6737;51.480;11.962;2023-07-29T06:38:38;20.60;99.90
13336;DHT22;6737;51.480;11.962;2023-07-29T06:41:06;20.80;99.90
13336;DHT22;6737;51.480;11.962;2023-07-29T06:43:32;20.80;99.90
13336;DHT22;6737;51.480;11.962;2023-07-29T06:45:58;21.00;99.90
13336;DHT22;6737;51.480;11.962;2023-07-29T06:48:23;21.10;99.90
13336;DHT22;6737;51.480;11.962;2023-07-29T06:50:50;21.10;99.90
13336;DHT22;6737;51.480;11.962;2023-07-29T06:53:16;21.10;99.90
13336;DHT22;6737;51.480;11.962;2023-07-29T06:55:43;21.10;99.90
13336;DHT22;6737;51.480;11.962;2023-07-29T06:58:10;21.00;99.90
13336;DHT22;6737;51.480;11.962;2023-07-29T07:00:36;20.90;99.90
13336;DHT22;6737;51.480;11.962;2023-07-29T07:03:02;20.90;99.90
13336;DHT22;6737;51.480;11.962;2023-07-29T07:05:28;20.90;99.90
13336;DHT22;6737;51.480;11.962;2023-07-29T07:07:53;20.80;99.90
13336;DHT22;6737;51.480;11.962;2023-07-29T07:10:19;20.80;99.90
13336;DHT22;6737;51.480;11.962;2023-07-29T07:12:45;20.70;99.90
13336;DHT22;6737;51.480;11.962;2023-07-29T07:15:11;20.70;99.90
13336;DHT22;6737;51.480;11.962;2023-07-29T07:17:37;20.70;99.90
13336;DHT22;6737;51.480;11.962;2023-07-29T07:20:02;20.70;99.90
13336;DHT22;6737;51.480;11.962;2023-07-29T07:22:29;20.60;99.90
13336;DHT22;6737;51.480;11.962;2023-07-29T07:24:54;20.60;99.90
13336;DHT22;6737;51.480;11.962;2023-07-29T07:27:20;20.60;99.90
13336;DHT22;6737;51.480;11.962;2023-07-29T07:29:46;20.60;99.90
13336;DHT22;6737;51.480;11.962;2023-07-29T07:32:12;20.60;99.90
13336;DHT22;6737;51.480;11.962;2023-07-29T07:34:38;20.50;99.90
13336;DHT22;6737;51.480;11.962;2023-07-29T07:37:03;20.50;99.90
13336;DHT22;6737;51.480;11.962;2023-07-29T07:39:31;20.50;99.90
13336;DHT22;6737;51.480;11.962;2023-07-29T07:41:57;20.50;99.90
13336;DHT22;6737;51.480;11.962;2023-07-29T07:44:22;20.50;99.90
13336;DHT22;6737;51.480;11.962;2023-07-29T07:46:48;20.60;99.90
13336;DHT22;6737;51.480;11.962;2023-07-29T07:49:14;20.60;99.90
13336;DHT22;6737;51.480;11.962;2023-07-29T07:51:40;20.60;99.90
13336;DHT22;6737;51.480;11.962;2023-07-29T07:54:05;20.70;99.90
13336;DHT22;6737;51.480;11.962;2023-07-29T07:56:31;20.80;99.90
13336;DHT22;6737;51.480;11.962;2023-07-29T07:58:57;20.80;99.90
13336;DHT22;6737;51.480;11.962;2023-07-29T08:01:23;20.90;99.90
13336;DHT22;6737;51.480;11.962;2023-07-29T08:03:49;20.90;99.90
13336;DHT22;6737;51.480;11.962;2023-07-29T08:06:14;21.00;99.90
13336;DHT22;6737;51.480;11.962;2023-07-29T08:08:40;21.00;99.90
13336;DHT22;6737;51.480;11.962;2023-07-29T08:11:06;21.10;99.90
13336;DHT22;6737;51.480;11.962;2023-07-29T08:13:32;21.20;99.90
13336;DHT22;6737;51.480;11.962;2023-07-29T08:15:57;21.30;99.90
13336;DHT22;6737;51.480;11.962;2023-07-29T08:18:23;21.30;99.90
13336;DHT22;6737;51.480;11.962;2023-07-29T08:20:56;21.40;99.90
13336;DHT22;6737;51.480;11.962;2023-07-29T08:23:26;21.50;99.90
13336;DHT22;6737;51.480;11.962;2023-07-29T08:25:59;21.60;99.90
13336;DHT22;6737;51.480;11.962;2023-07-29T08:28:34;21.70;99.90
13336;DHT22;6737;51.480;11.962;2023-07-29T08:31:01;21.80;99.90
13336;DHT22;6737;51.480;11.962;2023-07-29T08:33:27;21.70;99.90
13336;DHT22;6737;51.480;11.962;2023-07-29T08:35:53;21.70;99.90
13336;DHT22;6737;51.480;11.962;2023-07-29T08:38:20;21.70;99.90
13336;DHT22;6737;51.480;11.962;2023-07-29T08:40:52;21.70;99.90
13336;DHT22;6737;51.480;11.962;2023-07-29T08:43:20;21.70;99.90
13336;DHT22;6737;51.480;11.962;2023-07-29T08:45:50;21.80;99.90
13336;DHT22;6737;51.480;11.962;2023-07-29T08:48:21;22.00;99.90
13336;DHT22;6737;51.480;11.962;2023-07-29T08:50:50;22.10;99.90
13336;DHT22;6737;51.480;11.962;2023-07-29T08:53:17;22.10;99.90
13336;DHT22;6737;51.480;11.962;2023-07-29T08:55:43;22.10;99.90
13336;DHT22;6737;51.480;11.962;2023-07-29T08:58:09;22.20;99.90
13336;DHT22;6737;51.480;11.962;2023-07-29T09:00:36;22.10;99.90
13336;DHT22;6737;51.480;11.962;2023-07-29T09:03:03;22.10;99.90
13336;DHT22;6737;51.480;11.962;2023-07-29T09:05:33;22.10;99.90
13336;DHT22;6737;51.480;11.962;2023-07-29T09:08:02;22.10;99.90
13336;DHT22;6737;51.480;11.962;2023-07-29T09:10:28;22.00;99.90
13336;DHT22;6737;51.480;11.962;2023-07-29T09:12:55;22.10;99.90
13336;DHT22;6737;51.480;11.962;2023-07-29T09:15:32;22.10;99.90
13336;DHT22;6737;51.480;11.962;2023-07-29T09:17:59;22.20;99.90
13336;DHT22;6737;51.480;11.962;2023-07-29T09:20:28;22.30;99.90
13336;DHT22;6737;51.480;11.962;2023-07-29T09:22:58;22.40;99.90
13336;DHT22;6737;51.480;11.962;2023-07-29T09:25:28;22.50;99.90
13336;DHT22;6737;51.480;11.962;2023-07-29T09:28:01;22.50;99.90
13336;DHT22;6737;51.480;11.962;2023-07-29T09:30:27;22.50;99.90
13336;DHT22;6737;51.480;11.962;2023-07-29T09:32:57;22.50;99.90
13336;DHT22;6737;51.480;11.962;2023-07-29T09:35:23;22.60;99.90
13336;DHT22;6737;51.480;11.962;2023-07-29T09:37:51;22.60;99.90
13336;DHT22;6737;51.480;11.962;2023-07-29T09:40:17;22.50;99.90
13336;DHT22;6737;51.480;11.962;2023-07-29T09:42:54;22.60;99.90
13336;DHT22;6737;51.480;11.962;2023-07-29T09:45:22;22.60;99.90
13336;DHT22;6737;51.480;11.962;2023-07-29T09:47:48;22.60;99.90
13336;DHT22;6737;51.480;11.962;2023-07-29T09:50:14;22.60;99.90
13336;DHT22;6737;51.480;11.962;2023-07-29T09:52:41;22.60;99.90
13336;DHT22;6737;51.480;11.962;2023-07-29T09:55:08;22.60;99.90
13336;DHT22;6737;51.480;11.962;2023-07-29T09:57:34;22.60;99.90
13336;DHT22;6737;51.480;11.962;2023-07-29T10:00:01;22.60;99.90
13336;DHT22;6737;51.480;11.962;2023-07-29T10:02:31;22.60;99.90
13336;DHT22;6737;51.480;11.962;2023-07-29T10:04:57;22.60;99.90
13336;DHT22;6737;51.480;11.962;2023-07-29T10:07:25;22.70;99.90
13336;DHT22;6737;51.480;11.962;2023-07-29T10:09:52;22.70;99.90
13336;DHT22;6737;51.480;11.962;2023-07-29T10:12:19;22.70;99.90
13336;DHT22;6737;51.480;11.962;2023-07-29T10:14:48;22.70;99.90
13336;DHT22;6737;51.480;11.962;2023-07-29T10:17:16;22.80;99.90
13336;DHT22;6737;51.480;11.962;2023-07-29T10:19:43;22.80;99.90
13336;DHT22;6737;51.480;11.962;2023-07-29T10:22:12;22.70;99.90
13336;DHT22;6737;51.480;11.962;2023-07-29T10:24:40;22.80;99.90
13336;DHT22;6737;51.480;11.962;2023-07-29T10:27:11;22.80;99.90
13336;DHT22;6737;51.480;11.962;2023-07-29T10:29:43;22.80;99.90
13336;DHT22;6737;51.480;11.962;2023-07-29T10:32:11;22.90;99.90
13336;DHT22;6737;51.480;11.962;2023-07-29T10:34:39;22.90;99.90
13336;DHT22;6737;51.480;11.962;2023-07-29T10:37:05;22.90;99.90
13336;DHT22;6737;51.480;11.962;2023-07-29T10:39:39;23.00;99.90
13336;DHT22;6737;51.480;11.962;2023-07-29T10:42:06;23.10;99.90
13336;DHT22;6737;51.480;11.962;2023-07-29T10:47:17;23.80;99.90
13336;DHT22;6737;51.480;11.962;2023-07-29T10:49:44;24.00;99.90
13336;DHT22;6737;51.480;11.962;2023-07-29T10:52:27;24.10;99.90
13336;DHT22;6737;51.480;11.962;2023-07-29T10:54:54;24.30;99.90
13336;DHT22;6737;51.480;11.962;2023-07-29T10:57:37;24.20;99.90
13336;DHT22;6737;51.480;11.962;2023-07-29T11:00:04;24.00;99.90
13336;DHT22;6737;51.480;11.962;2023-07-29T11:02:32;23.90;99.90
13336;DHT22;6737;51.480;11.962;2023-07-29T11:05:04;23.70;99.90
13336;DHT22;6737;51.480;11.962;2023-07-29T11:07:29;23.50;99.90
13336;DHT22;6737;51.480;11.962;2023-07-29T11:09:58;23.40;99.90
13336;DHT22;6737;51.480;11.962;2023-07-29T11:12:46;23.20;99.90
13336;DHT22;6737;51.480;11.962;2023-07-29T11:15:16;23.10;99.90
13336;DHT22;6737;51.480;11.962;2023-07-29T11:17:49;23.10;99.90
13336;DHT22;6737;51.480;11.962;2023-07-29T11:20:16;23.20;99.90
13336;DHT22;6737;51.480;11.962;2023-07-29T11:22:42;23.30;99.90
13336;DHT22;6737;51.480;11.962;2023-07-29T11:25:10;23.50;99.90
13336;DHT22;6737;51.480;11.962;2023-07-29T11:27:37;23.60;99.90
13336;DHT22;6737;51.480;11.962;2023-07-29T11:30:05;23.70;99.90
13336;DHT22;6737;51.480;11.962;2023-07-29T11:32:32;23.80;99.90
13336;DHT22;6737;51.480;11.962;2023-07-29T11:35:08;23.90;99.90
13336;DHT22;6737;51.480;11.962;2023-07-29T11:37:36;23.90;99.90
13336;DHT22;6737;51.480;11.962;2023-07-29T11:40:02;23.80;99.90
13336;DHT22;6737;51.480;11.962;2023-07-29T11:42:30;23.70;99.90
13336;DHT22;6737;51.480;11.962;2023-07-29T11:44:57;23.50;99.90
13336;DHT22;6737;51.480;11.962;2023-07-29T11:47:24;23.50;99.90
13336;DHT22;6737;51.480;11.962;2023-07-29T11:49:50;23.40;99.90
13336;DHT22;6737;51.480;11.962;2023-07-29T11:52:16;23.20;99.90
13336;DHT22;6737;51.480;11.962;2023-07-29T11:54:48;23.20;99.90
13336;DHT22;6737;51.480;11.962;2023-07-29T11:57:14;23.10;99.90
13336;DHT22;6737;51.480;11.962;2023-07-29T11:59:41;23.10;99.90
13336;DHT22;6737;51.480;11.962;2023-07-29T12:02:11;23.00;99.90
13336;DHT22;6737;51.480;11.962;2023-07-29T12:04:39;22.90;99.90
13336;DHT22;6737;51.480;11.962;2023-07-29T12:07:06;22.90;99.90
13336;DHT22;6737;51.480;11.962;2023-07-29T12:09:32;22.90;99.90
13336;DHT22;6737;51.480;11.962;2023-07-29T12:11:59;22.80;99.90
13336;DHT22;6737;51.480;11.962;2023-07-29T12:14:29;22.80;99.90
13336;DHT22;6737;51.480;11.962;2023-07-29T12:16:54;22.70;99.90
13336;DHT22;6737;51.480;11.962;2023-07-29T12:19:20;22.70;99.90
13336;DHT22;6737;51.480;11.962;2023-07-29T12:21:48;22.80;99.90
13336;DHT22;6737;51.480;11.962;2023-07-29T12:24:14;22.90;99.90
13336;DHT22;6737;51.480;11.962;2023-07-29T12:26:41;23.20;99.90
13336;DHT22;6737;51.480;11.962;2023-07-29T12:29:17;23.40;99.90
13336;DHT22;6737;51.480;11.962;2023-07-29T12:31:48;23.50;99.90
13336;DHT22;6737;51.480;11.962;2023-07-29T12:34:19;23.70;99.90
13336;DHT22;6737;51.480;11.962;2023-07-29T12:36:50;23.90;99.90
13336;DHT22;6737;51.480;11.962;2023-07-29T12:41:51;24.20;99.90
13336;DHT22;6737;51.480;11.962;2023-07-29T12:44:17;24.20;99.90
13336;DHT22;6737;51.480;11.962;2023-07-29T12:46:43;24.30;99.90
13336;DHT22;6737;51.480;11.962;2023-07-29T12:49:09;24.30;99.90
13336;DHT22;6737;51.480;11.962;2023-07-29T12:51:35;24.30;99.90
13336;DHT22;6737;51.480;11.962;2023-07-29T12:54:02;24.30;99.90
13336;DHT22;6737;51.480;11.962;2023-07-29T12:56:28;24.40;99.90
13336;DHT22;6737;51.480;11.962;2023-07-29T12:58:57;24.50;99.90
13336;DHT22;6737;51.480;11.962;2023-07-29T13:01:24;24.70;99.90
13336;DHT22;6737;51.480;11.962;2023-07-29T13:03:50;24.80;99.90
13336;DHT22;6737;51.480;11.962;2023-07-29T13:06:16;25.00;99.90
13336;DHT22;6737;51.480;11.962;2023-07-29T13:08:42;25.10;99.90
13336;DHT22;6737;51.480;11.962;2023-07-29T13:11:08;25.20;99.90
13336;DHT22;6737;51.480;11.962;2023-07-29T13:13:34;25.20;99.90
13336;DHT22;6737;51.480;11.962;2023-07-29T13:16:00;25.00;99.90
13336;DHT22;6737;51.480;11.962;2023-07-29T13:18:26;24.80;99.90
13336;DHT22;6737;51.480;11.962;2023-07-29T13:20:53;24.60;99.90
13336;DHT22;6737;51.480;11.962;2023-07-29T13:23:19;24.60;99.90
13336;DHT22;6737;51.480;11.962;2023-07-29T13:25:44;24.70;99.90
13336;DHT22;6737;51.480;11.962;2023-07-29T13:28:11;24.80;99.90
13336;DHT22;6737;51.480;11.962;2023-07-29T13:30:39;24.80;99.90
13336;DHT22;6737;51.480;11.962;2023-07-29T13:33:06;24.80;99.90
13336;DHT22;6737;51.480;11.962;2023-07-29T13:35:32;24.90;99.90
13336;DHT22;6737;51.480;11.962;2023-07-29T13:37:58;24.90;99.90
13336;DHT22;6737;51.480;11.962;2023-07-29T13:40:24;24.90;99.90
13336;DHT22;6737;51.480;11.962;2023-07-29T13:42:50;24.90;99.90
13336;DHT22;6737;51.480;11.962;2023-07-29T13:45:16;24.80;99.90
13336;DHT22;6737;51.480;11.962;2023-07-29T13:47:41;24.60;99.90
13336;DHT22;6737;51.480;11.962;2023-07-29T13:50:07;24.50;99.90
13336;DHT22;6737;51.480;11.962;2023-07-29T13:52:34;24.40;99.90
13336;DHT22;6737;51.480;11.962;2023-07-29T13:55:00;24.30;99.90
13336;DHT22;6737;51.480;11.962;2023-07-29T13:57:25;24.30;99.90
13336;DHT22;6737;51.480;11.962;2023-07-29T13:59:51;24.20;99.90
13336;DHT22;6737;51.480;11.962;2023-07-29T14:02:17;24.20;99.90
13336;DHT22;6737;51.480;11.962;2023-07-29T14:04:43;24.00;99.90
13336;DHT22;6737;51.480;11.962;2023-07-29T14:07:09;23.80;99.90
13336;DHT22;6737;51.480;11.962;2023-07-29T14:09:35;23.70;99.90
13336;DHT22;6737;51.480;11.962;2023-07-29T14:12:00;23.50;99.90
13336;DHT22;6737;51.480;11.962;2023-07-29T14:14:26;23.20;99.90
13336;DHT22;6737;51.480;11.962;2023-07-29T14:16:52;22.80;99.90
13336;DHT22;6737;51.480;11.962;2023-07-29T14:19:18;22.60;99.90
13336;DHT22;6737;51.480;11.962;2023-07-29T14:21:44;22.60;99.90
13336;DHT22;6737;51.480;11.962;2023-07-29T14:24:09;22.60;99.90
13336;DHT22;6737;51.480;11.962;2023-07-29T14:26:35;21.80;99.90
13336;DHT22;6737;51.480;11.962;2023-07-29T14:29:01;21.00;99.90
13336;DHT22;6737;51.480;11.962;2023-07-29T14:31:27;20.40;99.90
13336;DHT22;6737;51.480;11.962;2023-07-29T14:33:52;19.80;99.90
13336;DHT22;6737;51.480;11.962;2023-07-29T14:36:18;19.50;99.90
13336;DHT22;6737;51.480;11.962;2023-07-29T14:38:44;19.30;99.90
13336;DHT22;6737;51.480;11.962;2023-07-29T14:41:10;19.20;99.90
13336;DHT22;6737;51.480;11.962;2023-07-29T14:43:35;19.10;99.90
13336;DHT22;6737;51.480;11.962;2023-07-29T14:46:02;19.10;99.90
13336;DHT22;6737;51.480;11.962;2023-07-29T14:48:28;19.00;99.90
13336;DHT22;6737;51.480;11.962;2023-07-29T14:50:54;18.90;99.90
13336;DHT22;6737;51.480;11.962;2023-07-29T14:53:20;18.80;99.90
13336;DHT22;6737;51.480;11.962;2023-07-29T14:55:46;18.80;99.90
13336;DHT22;6737;51.480;11.962;2023-07-29T14:58:11;18.70;99.90
13336;DHT22;6737;51.480;11.962;2023-07-29T15:00:37;18.70;99.90
13336;DHT22;6737;51.480;11.962;2023-07-29T15:03:03;18.70;99.90
13336;DHT22;6737;51.480;11.962;2023-07-29T15:05:29;18.70;99.90
13336;DHT22;6737;51.480;11.962;2023-07-29T15:07:55;18.70;99.90
13336;DHT22;6737;51.480;11.962;2023-07-29T15:10:20;18.70;99.90
13336;DHT22;6737;51.480;11.962;2023-07-29T15:12:46;18.60;99.90
13336;DHT22;6737;51.480;11.962;2023-07-29T15:15:12;18.70;99.90
13336;DHT22;6737;51.480;11.962;2023-07-29T15:17:38;18.80;99.90
13336;DHT22;6737;51.480;11.962;2023-07-29T15:20:05;18.90;99.90
13336;DHT22;6737;51.480;11.962;2023-07-29T15:22:31;19.00;99.90
13336;DHT22;6737;51.480;11.962;2023-07-29T15:24:58;19.10;99.90
13336;DHT22;6737;51.480;11.962;2023-07-29T15:27:29;19.30;99.90
13336;DHT22;6737;51.480;11.962;2023-07-29T15:29:55;19.50;99.90
13336;DHT22;6737;51.480;11.962;2023-07-29T15:32:22;19.60;99.90
13336;DHT22;6737;51.480;11.962;2023-07-29T15:34:49;19.80;99.90
13336;DHT22;6737;51.480;11.962;2023-07-29T15:37:15;19.90;99.90
13336;DHT22;6737;51.480;11.962;2023-07-29T15:39:41;20.00;99.90
13336;DHT22;6737;51.480;11.962;2023-07-29T15:42:07;20.10;99.90